Time;durP1;ratioP1;P1;durP2;ratioP2;P2;SDS_P1;SDS_P2;PMS_P1;PMS_P2;Temp;Humidity;BMP_temperature;BMP_pressure;BME280_temperature;BME280_humidity;BME280_pressure;Samples;Min_cycle;Max_cycle;Signal;HPM_P1;HPM_P2
2022/09/03 00:01:57;;;;;;;13.32;5.88;;;;;;;16.39;82.90;100740.81;5056332;28;20494;-79
2022/09/03 00:04:50;;;;;;;12.77;5.18;;;;;;;16.42;82.84;100748.78;5074388;28;20510;-80
2022/09/03 00:07:41;;;;;;;13.90;6.13;;;;;;;16.19;84.53;100745.69;5065732;28;20028;-81
2022/09/03 00:10:12;;;;;;;16.23;5.55;;;;;;;16.21;84.17;100743.59;5066695;28;20036;-79
2022/09/03 00:12:45;;;;;;;11.13;5.80;;;;;;;16.24;84.02;100751.56;5062406;28;20488;-80
2022/09/03 00:15:21;;;;;;;11.55;5.85;;;;;;;16.10;84.88;100739.22;5056827;28;20053;-80
2022/09/03 00:18:19;;;;;;;19.88;6.32;;;;;;;16.13;84.90;100747.19;5077341;28;20388;-80
2022/09/03 00:20:58;;;;;;;14.85;5.40;;;;;;;16.10;85.54;100742.00;5058614;28;20502;-79
2022/09/03 00:23:27;;;;;;;20.23;7.93;;;;;;;15.98;86.55;100748.78;5056520;28;20434;-79
2022/09/03 00:26:11;;;;;;;16.08;6.50;;;;;;;15.86;88.25;100745.41;5076375;28;20036;-79
2022/09/03 00:28:45;;;;;;;12.32;5.53;;;;;;;15.87;87.85;100749.03;5067102;28;20041;-79
2022/09/03 00:31:35;;;;;;;21.55;5.90;;;;;;;15.89;87.68;100744.19;5053875;28;20056;-78
2022/09/03 00:34:13;;;;;;;13.40;5.63;;;;;;;15.85;87.37;100749.19;5056925;28;20066;-79
2022/09/03 00:36:44;;;;;;;19.42;6.03;;;;;;;15.89;86.91;100752.50;5059106;28;20025;-79
2022/09/03 00:39:25;;;;;;;17.17;6.65;;;;;;;15.80;87.87;100743.28;5065453;28;20064;-79
2022/09/03 00:42:14;;;;;;;16.15;5.38;;;;;;;15.74;88.23;100752.16;5060212;28;20031;-78
2022/09/03 00:44:54;;;;;;;10.65;5.32;;;;;;;15.62;88.94;100744.09;5078578;28;20444;-78
2022/09/03 00:47:33;;;;;;;9.63;5.63;;;;;;;15.66;89.22;100743.78;5060341;28;20024;-79
2022/09/03 00:50:25;;;;;;;11.85;5.85;;;;;;;15.59;89.57;100744.44;5067443;28;20078;-79
2022/09/03 00:53:11;;;;;;;26.58;7.05;;;;;;;15.48;90.22;100747.44;5060982;28;20032;-79
2022/09/03 00:55:45;;;;;;;13.55;5.88;;;;;;;15.41;91.12;100746.28;5053845;28;20445;-80
2022/09/03 00:58:24;;;;;;;15.48;5.43;;;;;;;15.46;91.01;100748.59;5064076;28;20036;-79
2022/09/03 01:00:56;;;;;;;10.77;5.30;;;;;;;15.44;90.67;100740.47;5059839;28;20489;-79
2022/09/03 01:03:50;;;;;;;16.05;5.72;;;;;;;15.33;92.31;100741.56;5055910;28;20071;-79
2022/09/03 01:06:26;;;;;;;11.90;5.40;;;;;;;15.31;92.01;100749.13;5059881;28;20542;-80
2022/09/03 01:09:40;;;;;;;13.63;5.85;;;;;;;15.43;91.00;100749.78;5062239;28;20025;-80
2022/09/03 01:12:26;;;;;;;9.13;5.20;;;;;;;15.38;91.27;100755.78;4964435;28;20055;-79
2022/09/03 01:15:15;;;;;;;24.98;5.43;;;;;;;15.30;91.82;100749.28;4954319;29;20043;-79
2022/09/03 01:17:49;;;;;;;12.80;5.05;;;;;;;15.27;92.06;100744.94;5022700;28;20419;-78
2022/09/03 01:20:24;;;;;;;15.77;5.40;;;;;;;15.36;91.51;100748.66;5046336;28;20060;-78
2022/09/03 01:23:34;;;;;;;12.98;4.93;;;;;;;15.35;91.24;100745.03;5081128;28;20342;-79
2022/09/03 01:26:20;;;;;;;11.63;5.03;;;;;;;15.25;91.48;100742.34;5049341;28;20451;-79
2022/09/03 01:29:06;;;;;;;11.07;5.22;;;;;;;15.27;91.30;100750.47;5056408;28;20086;-79
2022/09/03 01:31:47;;;;;;;9.15;4.65;;;;;;;15.23;90.93;100749.91;5057621;28;20051;-80
2022/09/03 01:34:25;;;;;;;10.77;5.28;;;;;;;15.16;92.10;100748.78;5063935;28;20037;-80
2022/09/03 01:37:18;;;;;;;12.13;5.38;;;;;;;15.09;93.04;100750.44;5048230;28;20032;-78
2022/09/03 01:40:05;;;;;;;11.75;5.10;;;;;;;15.12;92.60;100747.38;5067293;28;20028;-79
2022/09/03 01:42:45;;;;;;;10.25;4.90;;;;;;;15.12;92.84;100746.47;5045151;28;20044;-79
2022/09/03 01:45:45;;;;;;;6.95;4.70;;;;;;;15.02;93.55;100743.75;5079466;28;20069;-79
2022/09/03 01:48:29;;;;;;;15.43;5.65;;;;;;;15.00;93.63;100743.94;5055224;28;20029;-79
2022/09/03 01:51:23;;;;;;;16.92;5.50;;;;;;;15.07;92.66;100746.97;5055922;28;20040;-77
2022/09/03 01:54:09;;;;;;;17.55;5.20;;;;;;;15.07;92.56;100746.97;5052948;28;20064;-78
2022/09/03 01:57:09;;;;;;;10.20;4.63;;;;;;;15.01;93.29;100750.31;5055725;28;20029;-78
2022/09/03 01:59:53;;;;;;;16.67;5.10;;;;;;;14.99;93.54;100741.34;5061190;28;20043;-79
2022/09/03 02:02:23;;;;;;;9.10;4.75;;;;;;;15.07;92.72;100749.72;5073870;28;20035;-78
2022/09/03 02:05:08;;;;;;;10.52;5.03;;;;;;;15.01;93.47;100742.91;5071929;28;20037;-80
2022/09/03 02:07:45;;;;;;;15.88;7.13;;;;;;;14.91;94.92;100744.00;5058087;28;20431;-79
2022/09/03 02:10:17;;;;;;;12.18;5.47;;;;;;;14.96;93.41;100736.13;5058514;28;20079;-78
2022/09/03 02:13:13;;;;;;;6.63;4.75;;;;;;;15.02;93.08;100741.00;5066949;28;20025;-78
2022/09/03 02:15:47;;;;;;;8.90;4.80;;;;;;;15.01;93.19;100734.63;5067931;28;20021;-79
2022/09/03 02:18:26;;;;;;;12.75;4.40;;;;;;;14.99;93.80;100742.19;5054802;28;20392;-79
2022/09/03 02:20:53;;;;;;;12.05;4.97;;;;;;;14.86;94.57;100730.66;5063265;28;20167;-79
2022/09/03 02:23:19;;;;;;;14.23;4.57;;;;;;;14.95;93.84;100734.38;5048030;28;20051;-79
2022/09/03 02:25:53;;;;;;;7.60;4.60;;;;;;;14.97;93.12;100740.59;5038307;28;20117;-79
2022/09/03 02:28:29;;;;;;;11.75;4.70;;;;;;;14.89;93.92;100731.22;5057193;28;20075;-79
2022/09/03 02:30:59;;;;;;;14.40;5.35;;;;;;;14.69;95.47;100737.84;5055607;28;20024;-79
2022/09/03 02:33:25;;;;;;;8.00;4.32;;;;;;;14.75;95.44;100737.22;5063612;28;20504;-78
2022/09/03 02:35:52;;;;;;;11.75;5.85;;;;;;;14.88;94.35;100746.00;5057683;28;20029;-77
2022/09/03 02:38:24;;;;;;;16.00;4.40;;;;;;;14.88;94.46;100736.88;5064625;28;20056;-78
2022/09/03 02:40:50;;;;;;;12.02;4.50;;;;;;;14.76;95.03;100725.19;5060217;28;20061;-78
2022/09/03 02:43:38;;;;;;;15.40;4.70;;;;;;;14.85;94.53;100737.19;5064672;28;20060;-78
2022/09/03 02:46:08;;;;;;;12.13;4.30;;;;;;;14.75;95.22;100728.09;5062189;28;20025;-79
2022/09/03 02:48:35;;;;;;;14.45;3.97;;;;;;;14.72;95.40;100729.25;5064032;28;21588;-79
2022/09/03 02:51:04;;;;;;;29.50;4.68;;;;;;;14.68;95.08;100714.06;5043060;28;20025;-80
2022/09/03 02:53:30;;;;;;;10.13;4.35;;;;;;;14.73;94.79;100731.00;5060255;28;20104;-78
2022/09/03 02:55:59;;;;;;;8.85;4.45;;;;;;;14.75;94.60;100728.97;5064119;28;20032;-78
2022/09/03 02:58:30;;;;;;;9.20;4.25;;;;;;;14.69;94.78;100724.94;5059292;28;20040;-78
2022/09/03 03:00:59;;;;;;;14.32;4.82;;;;;;;14.64;95.66;100724.53;5042686;28;20060;-78
2022/09/03 03:03:25;;;;;;;11.85;4.30;;;;;;;14.65;96.01;100731.75;5062719;28;20033;-79
2022/09/03 03:06:03;;;;;;;8.10;3.80;;;;;;;14.62;96.17;100723.78;5060802;28;20413;-78
2022/09/03 03:08:32;;;;;;;7.88;3.88;;;;;;;14.62;95.94;100728.44;5059449;28;20025;-78
2022/09/03 03:11:06;;;;;;;20.60;4.45;;;;;;;14.59;96.16;100735.09;5041073;28;20408;-78
2022/09/03 03:13:41;;;;;;;14.43;4.35;;;;;;;14.53;97.15;100728.28;5058919;28;20045;-79
2022/09/03 03:16:15;;;;;;;12.90;4.40;;;;;;;14.47;97.61;100720.63;5063439;28;20039;-79
2022/09/03 03:18:41;;;;;;;11.77;4.28;;;;;;;14.41;98.32;100732.22;5047853;28;20447;-78
2022/09/03 03:21:16;;;;;;;8.18;3.80;;;;;;;14.42;97.88;100728.47;5064890;28;20484;-78
2022/09/03 03:23:47;;;;;;;6.82;3.92;;;;;;;14.47;97.66;100726.13;5072875;28;20375;-79
2022/09/03 03:26:18;;;;;;;5.75;3.72;;;;;;;14.31;99.22;100726.78;5058176;28;20036;-78
2022/09/03 03:28:49;;;;;;;11.70;3.70;;;;;;;14.24;99.85;100724.78;5064715;28;20055;-78
2022/09/03 03:31:19;;;;;;;10.98;3.90;;;;;;;14.30;98.96;100724.19;5047466;28;20044;-78
2022/09/03 03:33:59;;;;;;;29.00;4.82;;;;;;;14.34;99.51;100734.72;5058688;28;20021;-78
2022/09/03 03:36:27;;;;;;;13.63;4.43;;;;;;;14.29;100.00;100726.03;5066109;28;20109;-78
2022/09/03 03:38:55;;;;;;;4.38;3.70;;;;;;;14.27;100.00;100727.22;5059785;28;20064;-78
2022/09/03 03:41:23;;;;;;;13.02;4.13;;;;;;;14.31;99.84;100726.78;5068748;28;20032;-77
2022/09/03 03:43:56;;;;;;;9.40;3.97;;;;;;;14.33;99.12;100726.59;5063272;28;20025;-78
2022/09/03 03:46:28;;;;;;;14.93;4.55;;;;;;;14.33;99.69;100727.50;5054052;28;20186;-79
2022/09/03 03:48:55;;;;;;;7.38;3.65;;;;;;;14.33;99.71;100734.88;5058219;28;20025;-78
2022/09/03 03:51:20;;;;;;;15.30;4.20;;;;;;;14.27;100.00;100733.59;5055359;28;20044;-78
2022/09/03 03:53:46;;;;;;;10.38;3.92;;;;;;;14.16;100.00;100728.25;5067945;28;20496;-78
2022/09/03 03:56:15;;;;;;;11.57;4.05;;;;;;;14.07;100.00;100716.25;5039506;28;20029;-79
2022/09/03 03:58:42;;;;;;;12.00;4.28;;;;;;;14.22;100.00;100733.19;5065946;28;20036;-80
2022/09/03 04:01:13;;;;;;;14.13;4.03;;;;;;;14.15;100.00;100730.16;5056988;28;20029;-78
2022/09/03 04:03:40;;;;;;;7.82;3.67;;;;;;;14.16;100.00;100720.00;5059284;28;20029;-79
2022/09/03 04:06:12;;;;;;;8.48;4.28;;;;;;;14.10;100.00;100721.47;5067747;28;20124;-79
2022/09/03 04:08:41;;;;;;;9.90;3.88;;;;;;;14.12;100.00;100722.19;5062848;28;20028;-80
2022/09/03 04:11:13;;;;;;;17.35;5.40;;;;;;;14.15;100.00;100710.88;5067757;28;20029;-80
2022/09/03 04:13:46;;;;;;;11.27;3.42;;;;;;;14.21;100.00;100716.81;5063860;28;20025;-80
2022/09/03 04:16:25;;;;;;;10.80;3.67;;;;;;;14.01;100.00;100721.47;5068599;28;20368;-79
2022/09/03 04:18:55;;;;;;;14.02;3.88;;;;;;;14.03;100.00;100720.31;5074666;28;20040;-79
2022/09/03 04:21:25;;;;;;;9.88;3.28;;;;;;;14.18;100.00;100719.84;5076796;28;20148;-79
2022/09/03 04:23:56;;;;;;;10.38;3.85;;;;;;;14.15;100.00;100716.38;5051421;28;20174;-78
2022/09/03 04:26:31;;;;;;;6.88;3.25;;;;;;;14.06;100.00;100717.25;5049404;28;20040;-78
2022/09/03 04:29:02;;;;;;;11.18;3.65;;;;;;;14.00;100.00;100715.09;5043523;28;20033;-79
2022/09/03 04:31:27;;;;;;;6.15;3.47;;;;;;;13.93;100.00;100711.19;5082186;28;20089;-79
2022/09/03 04:33:54;;;;;;;8.52;3.65;;;;;;;13.98;100.00;100715.22;5068928;28;20036;-78
2022/09/03 04:36:22;;;;;;;14.45;3.53;;;;;;;14.06;100.00;100714.50;5060444;28;20017;-79
2022/09/03 04:38:50;;;;;;;7.32;4.03;;;;;;;14.12;100.00;100715.81;5057744;28;20108;-79
2022/09/03 04:41:26;;;;;;;8.20;4.28;;;;;;;14.07;100.00;100730.03;5062058;28;20033;-79
2022/09/03 04:43:57;;;;;;;13.30;4.85;;;;;;;14.05;100.00;100721.03;5063781;28;20021;-79
2022/09/03 04:46:31;;;;;;;17.48;4.15;;;;;;;14.05;100.00;100728.41;5040821;28;20047;-79
2022/09/03 04:49:08;;;;;;;10.32;3.65;;;;;;;13.97;100.00;100729.19;5057726;28;20028;-80
2022/09/03 04:51:42;;;;;;;8.50;4.10;;;;;;;14.03;100.00;100731.31;5064360;28;20037;-78
2022/09/03 04:54:09;;;;;;;10.27;3.42;;;;;;;13.95;100.00;100729.31;5063525;28;20105;-81
2022/09/03 04:56:37;;;;;;;13.25;4.28;;;;;;;13.93;100.00;100727.72;5046346;28;20419;-79
2022/09/03 04:59:08;;;;;;;5.28;3.97;;;;;;;13.81;100.00;100734.38;5054927;28;20040;-79
2022/09/03 05:01:38;;;;;;;8.70;3.65;;;;;;;13.83;100.00;100735.13;5061216;28;20488;-80
2022/09/03 05:04:07;;;;;;;9.90;3.92;;;;;;;13.81;100.00;100724.25;5055378;28;20063;-79
2022/09/03 05:06:37;;;;;;;10.73;3.60;;;;;;;13.82;100.00;100727.88;5047362;28;20087;-80
2022/09/03 05:09:03;;;;;;;15.82;4.00;;;;;;;13.75;100.00;100720.19;5052730;28;20491;-79
2022/09/03 05:11:30;;;;;;;9.80;3.95;;;;;;;13.86;100.00;100723.81;5064168;28;20064;-78
2022/09/03 05:14:05;;;;;;;7.30;3.83;;;;;;;13.97;100.00;100726.41;5056865;28;20035;-79
2022/09/03 05:16:31;;;;;;;10.80;3.70;;;;;;;13.87;100.00;100723.69;5075579;28;20095;-79
2022/09/03 05:18:58;;;;;;;16.33;4.05;;;;;;;13.81;100.00;100724.25;5060696;28;20423;-79
2022/09/03 05:21:31;;;;;;;10.00;4.25;;;;;;;13.75;100.00;100730.34;5062109;28;20033;-79
2022/09/03 05:23:58;;;;;;;8.32;3.78;;;;;;;13.81;100.00;100729.75;5047737;28;20040;-79
2022/09/03 05:26:26;;;;;;;12.98;3.80;;;;;;;13.96;100.00;100721.91;5043473;28;20016;-79
2022/09/03 05:28:55;;;;;;;13.07;4.03;;;;;;;14.14;100.00;100731.16;5070424;28;20090;-79
2022/09/03 05:31:26;;;;;;;10.98;4.22;;;;;;;14.18;100.00;100725.34;5062702;28;20043;-79
2022/09/03 05:33:58;;;;;;;15.23;4.53;;;;;;;14.11;100.00;100720.44;5056712;28;20057;-79
2022/09/03 05:36:30;;;;;;;18.33;4.05;;;;;;;14.28;100.00;100734.44;5056179;28;20029;-79
2022/09/03 05:39:03;;;;;;;12.80;3.65;;;;;;;14.31;100.00;100731.41;5059951;28;20052;-79
2022/09/03 05:41:28;;;;;;;16.95;4.10;;;;;;;14.45;100.00;100730.06;5069470;28;20434;-79
2022/09/03 05:43:57;;;;;;;13.70;3.40;;;;;;;14.62;100.00;100732.06;5050840;28;20028;-78
2022/09/03 05:46:32;;;;;;;14.10;3.28;;;;;;;14.74;100.00;100730.00;5057911;28;20442;-80
2022/09/03 05:49:04;;;;;;;7.45;3.38;;;;;;;14.77;100.00;100724.16;5055680;28;20036;-79
2022/09/03 05:51:35;;;;;;;13.15;3.70;;;;;;;14.93;100.00;100733.69;5069116;28;20132;-78
2022/09/03 05:54:02;;;;;;;13.50;3.53;;;;;;;15.06;100.00;100723.16;5066956;28;20032;-78
2022/09/03 05:56:30;;;;;;;15.57;3.72;;;;;;;15.31;100.00;100726.19;5054832;28;20100;-79
2022/09/03 05:59:00;;;;;;;16.92;3.90;;;;;;;15.57;100.00;100727.16;5058538;28;20078;-79
2022/09/03 06:01:30;;;;;;;18.58;4.15;;;;;;;15.84;100.00;100725.38;5062904;28;20028;-79
2022/09/03 06:04:04;;;;;;;21.75;3.63;;;;;;;16.16;100.00;100719.22;5059939;28;20104;-78
2022/09/03 06:06:40;;;;;;;20.70;3.88;;;;;;;16.35;96.15;100720.91;5074125;28;20075;-80
2022/09/03 06:09:12;;;;;;;11.75;4.40;;;;;;;16.74;92.61;100725.09;5061895;28;20102;-81
2022/09/03 06:11:41;;;;;;;13.57;3.10;;;;;;;17.00;91.13;100725.09;5049298;28;20075;-80
2022/09/03 06:14:13;;;;;;;8.00;3.40;;;;;;;17.07;90.55;100726.16;5046121;28;20052;-77
2022/09/03 06:16:43;;;;;;;9.80;3.78;;;;;;;17.25;88.04;100730.72;5070491;28;20518;-77
2022/09/03 06:19:10;;;;;;;5.28;2.90;;;;;;;17.37;87.30;100734.03;5076974;28;20041;-77
2022/09/03 06:21:39;;;;;;;16.13;2.60;;;;;;;17.57;85.41;100729.06;5079481;28;20077;-77
2022/09/03 06:24:06;;;;;;;11.10;2.97;;;;;;;17.90;82.80;100731.91;5067352;28;20024;-77
2022/09/03 06:26:38;;;;;;;8.50;2.85;;;;;;;17.83;82.73;100735.31;5047822;28;20045;-76
2022/09/03 06:29:03;;;;;;;16.77;3.70;;;;;;;18.08;81.04;100726.19;5055901;28;20033;-76
2022/09/03 06:31:31;;;;;;;5.80;2.80;;;;;;;17.89;80.67;100730.16;5045496;28;20036;-77
2022/09/03 06:33:59;;;;;;;10.38;2.95;;;;;;;17.86;82.23;100733.25;5027907;28;20037;-77
2022/09/03 06:36:25;;;;;;;7.50;2.33;;;;;;;17.61;82.87;100727.66;5024631;28;20067;-77
2022/09/03 06:38:55;;;;;;;13.32;2.67;;;;;;;17.33;84.99;100733.53;5056989;28;20713;-77
2022/09/03 06:41:31;;;;;;;10.32;2.67;;;;;;;17.18;86.93;100736.03;5056899;28;20107;-77
2022/09/03 06:44:10;;;;;;;13.70;3.03;;;;;;;17.39;86.41;100737.50;5068181;28;20063;-77
2022/09/03 06:46:42;;;;;;;8.63;2.47;;;;;;;17.58;84.34;100730.81;5056136;28;20138;-77
2022/09/03 06:49:14;;;;;;;9.98;3.00;;;;;;;18.06;82.46;100729.13;5039767;28;20123;-77
2022/09/03 06:51:44;;;;;;;16.40;2.80;;;;;;;18.31;81.63;100732.72;5054192;28;20086;-78
2022/09/03 06:54:14;;;;;;;10.80;2.70;;;;;;;18.47;81.12;100733.75;5056327;28;20501;-77
2022/09/03 06:56:48;;;;;;;15.00;2.58;;;;;;;18.80;79.11;100728.13;5070861;28;20036;-79
2022/09/03 06:59:14;;;;;;;17.92;2.65;;;;;;;19.15;76.92;100731.47;5062503;28;20485;-79
2022/09/03 07:01:41;;;;;;;10.68;3.10;;;;;;;19.00;77.65;100729.44;5063394;28;20396;-79
2022/09/03 07:04:07;;;;;;;10.45;2.78;;;;;;;19.74;75.13;100731.81;5077141;28;20077;-78
2022/09/03 07:06:37;;;;;;;20.95;2.45;;;;;;;19.82;73.27;100737.34;5075682;28;20035;-80
2022/09/03 07:09:07;;;;;;;12.63;2.20;;;;;;;19.69;73.29;100736.19;5056802;28;20472;-81
2022/09/03 07:11:44;;;;;;;12.00;2.00;;;;;;;19.96;72.40;100734.81;5045657;28;20036;-81
2022/09/03 07:14:10;;;;;;;7.03;2.10;;;;;;;20.15;71.56;100738.97;5069312;28;20043;-81
2022/09/03 07:16:36;;;;;;;8.85;2.15;;;;;;;20.41;71.21;100723.78;5045993;28;20037;-81
2022/09/03 07:19:08;;;;;;;13.85;1.77;;;;;;;20.64;68.93;100732.09;5080501;28;20105;-80
2022/09/03 07:21:37;;;;;;;9.52;2.15;;;;;;;20.26;68.53;100734.91;5080338;28;20051;-80
2022/09/03 07:24:08;;;;;;;8.88;2.80;;;;;;;20.19;68.00;100738.41;5062407;28;20040;-80
2022/09/03 07:26:45;;;;;;;10.10;3.00;;;;;;;20.42;66.40;100737.50;5067095;28;20044;-80
2022/09/03 07:29:11;;;;;;;9.60;2.00;;;;;;;20.26;67.96;100730.19;5058527;28;20029;-80
2022/09/03 07:31:40;;;;;;;18.30;4.25;;;;;;;20.52;67.25;100740.03;5043821;28;20144;-81
2022/09/03 07:34:09;;;;;;;19.48;6.00;;;;;;;20.89;64.61;100727.09;5070731;28;20036;-79
2022/09/03 07:36:37;;;;;;;12.77;3.53;;;;;;;20.96;62.74;100733.66;5080760;28;20029;-80
2022/09/03 07:39:04;;;;;;;12.60;3.42;;;;;;;21.19;62.55;100735.44;5069655;28;20041;-82
2022/09/03 07:41:36;;;;;;;14.70;2.95;;;;;;;21.99;59.21;100728.03;5069735;28;20468;-81
2022/09/03 07:44:06;;;;;;;17.17;3.90;;;;;;;22.18;58.44;100729.25;5045570;28;20061;-80
2022/09/03 07:46:44;;;;;;;32.53;10.50;;;;;;;21.36;61.63;100731.38;5061457;28;20126;-80
2022/09/03 07:49:13;;;;;;;46.47;14.48;;;;;;;21.55;60.83;100732.69;5070649;28;20107;-80
2022/09/03 07:51:45;;;;;;;47.60;13.90;;;;;;;21.71;60.40;100727.94;5075368;28;20043;-80
2022/09/03 07:54:17;;;;;;;22.38;8.68;;;;;;;22.10;59.42;100726.59;5061823;28;20061;-80
2022/09/03 07:56:42;;;;;;;62.42;19.48;;;;;;;21.94;59.18;100731.41;5067295;28;20033;-79
2022/09/03 07:59:11;;;;;;;58.25;16.77;;;;;;;22.70;58.13;100736.34;5044282;28;20480;-80
2022/09/03 08:01:37;;;;;;;43.75;12.77;;;;;;;22.90;56.47;100739.25;5074776;28;20084;-80
2022/09/03 08:04:05;;;;;;;38.10;12.15;;;;;;;22.80;55.90;100744.34;5069375;28;20443;-80
2022/09/03 08:06:36;;;;;;;24.67;9.05;;;;;;;22.88;55.38;100746.13;5061178;28;20112;-80
2022/09/03 08:09:06;;;;;;;51.22;16.30;;;;;;;22.71;56.02;100737.19;5042981;28;20049;-80
2022/09/03 08:11:38;;;;;;;67.38;21.10;;;;;;;22.90;54.98;100743.97;5069415;28;20032;-80
2022/09/03 08:14:07;;;;;;;60.20;20.70;;;;;;;23.02;55.43;100742.34;5073245;28;20036;-80
2022/09/03 08:16:35;;;;;;;77.00;22.80;;;;;;;23.24;53.59;100745.91;5080759;28;20062;-80
2022/09/03 08:19:06;;;;;;;71.15;21.33;;;;;;;23.39;53.25;100751.34;5078846;28;20052;-80
2022/09/03 08:21:31;;;;;;;66.93;21.15;;;;;;;23.57;52.80;100752.72;5063586;28;20097;-80
2022/09/03 08:24:07;;;;;;;43.05;14.07;;;;;;;24.14;50.80;100756.94;5066229;28;20033;-79
2022/09/03 08:26:34;;;;;;;65.93;24.73;;;;;;;24.02;51.90;100758.63;5068706;28;20048;-79
2022/09/03 08:29:01;;;;;;;72.10;25.17;;;;;;;23.74;52.19;100755.97;5062229;28;20090;-79
2022/09/03 08:31:28;;;;;;;64.25;23.90;;;;;;;24.01;51.50;100755.00;5062324;28;20440;-79
2022/09/03 08:33:56;;;;;;;66.25;21.58;;;;;;;24.06;51.61;100759.94;5060794;28;20061;-80
2022/09/03 08:36:30;;;;;;;49.60;18.00;;;;;;;24.31;51.23;100760.19;5061012;28;20420;-79
2022/09/03 08:39:02;;;;;;;40.38;13.75;;;;;;;25.00;48.99;100757.13;5026278;28;20053;-79
2022/09/03 08:41:49;;;;;;;32.88;11.57;;;;;;;24.62;49.20;100764.31;5064101;28;20049;-80
2022/09/03 08:44:33;;;;;;;39.00;10.32;;;;;;;25.40;47.75;100762.63;5080519;28;20052;-80
2022/09/03 08:47:27;;;;;;;34.72;12.63;;;;;;;24.74;48.39;100764.50;5080159;28;20373;-79
2022/09/03 08:50:28;;;;;;;46.83;15.73;;;;;;;24.95;47.84;100763.38;5078005;28;20028;-80
2022/09/03 08:53:12;;;;;;;38.35;14.48;;;;;;;25.08;47.95;100757.75;5078008;28;20039;-80
2022/09/03 08:55:51;;;;;;;39.70;16.38;;;;;;;24.56;48.71;100763.25;5062476;28;20039;-81
2022/09/03 08:58:30;;;;;;;40.05;14.15;;;;;;;25.54;45.72;100753.06;5058297;28;20041;-80
2022/09/03 09:01:04;;;;;;;60.35;18.05;;;;;;;24.96;47.47;100762.31;5056992;28;20421;-80
2022/09/03 09:03:45;;;;;;;51.15;16.20;;;;;;;24.84;47.89;100770.53;5056905;28;20109;-80
2022/09/03 09:06:17;;;;;;;34.88;13.50;;;;;;;25.50;46.19;100763.88;5057995;28;20025;-80
2022/09/03 09:09:04;;;;;;;49.83;14.80;;;;;;;25.62;46.18;100764.03;5075225;28;20456;-81
2022/09/03 09:12:11;;;;;;;33.08;11.55;;;;;;;25.10;47.08;100765.94;5061170;28;20020;-81
2022/09/03 09:15:07;;;;;;;44.93;16.43;;;;;;;25.55;46.97;100767.94;5073779;28;20119;-81
2022/09/03 09:17:57;;;;;;;51.30;17.02;;;;;;;25.90;45.88;100768.41;5058206;28;20651;-80
2022/09/03 09:20:47;;;;;;;44.03;15.70;;;;;;;26.23;45.05;100764.53;5058173;28;20044;-80
2022/09/03 09:23:32;;;;;;;28.55;6.80;;;;;;;26.03;46.09;100767.50;5060279;28;20120;-80
2022/09/03 09:26:09;;;;;;;7.88;2.60;;;;;;;26.52;44.66;100770.59;5071032;28;20126;-80
2022/09/03 09:28:39;;;;;;;39.15;12.68;;;;;;;26.53;44.22;100770.34;5077071;28;20028;-82
2022/09/03 09:31:14;;;;;;;30.15;11.63;;;;;;;25.86;44.87;100769.97;5076716;28;20056;-82
2022/09/03 09:33:50;;;;;;;36.53;11.02;;;;;;;25.85;45.60;100769.06;5057640;28;20064;-80
2022/09/03 09:36:24;;;;;;;40.63;10.63;;;;;;;25.96;44.86;100761.09;5043761;28;20087;-81
2022/09/03 09:39:08;;;;;;;40.00;12.10;;;;;;;25.83;44.86;100765.63;5044337;28;20040;-79
2022/09/03 09:41:35;;;;;;;34.00;11.70;;;;;;;25.58;45.59;100757.16;5072804;28;20556;-80
2022/09/03 09:44:05;;;;;;;38.80;12.50;;;;;;;25.43;46.23;100757.44;5038320;28;20037;-82
2022/09/03 09:46:41;;;;;;;42.47;12.68;;;;;;;25.82;45.78;100763.91;5061629;28;20123;-81
2022/09/03 09:49:51;;;;;;;25.48;8.88;;;;;;;25.85;45.50;100763.47;5050605;28;20124;-80
2022/09/03 09:52:17;;;;;;;;;;;;;;;26.49;44.28;100759.81;5056161;28;20041;-81
2022/09/03 09:55:04;;;;;;;22.92;6.57;;;;;;;26.45;44.26;100767.84;5057758;28;20322;-80
2022/09/03 09:57:31;;;;;;;12.90;3.45;;;;;;;27.39;40.66;100761.28;5055585;28;20036;-81
2022/09/03 10:00:12;;;;;;;13.10;3.45;;;;;;;27.19;41.57;100765.16;5073072;28;20028;-79
2022/09/03 10:02:49;;;;;;;12.93;3.30;;;;;;;26.59;42.31;100763.78;5078214;28;20037;-79
2022/09/03 10:05:29;;;;;;;20.98;5.53;;;;;;;26.50;42.83;100756.78;5089295;28;20456;-80
2022/09/03 10:08:17;;;;;;;20.23;9.57;;;;;;;25.85;44.58;100757.84;5075229;28;20502;-80
2022/09/03 10:10:52;;;;;;;31.20;8.68;;;;;;;26.41;44.07;100756.16;5064080;28;20028;-79
2022/09/03 10:13:39;;;;;;;17.55;5.80;;;;;;;26.38;42.58;100753.84;5077243;28;20051;-79
2022/09/03 10:16:33;;;;;;;12.80;4.05;;;;;;;26.20;43.03;100749.03;5077819;28;20045;-80
2022/09/03 10:19:02;;;;;;;15.15;3.63;;;;;;;26.52;43.04;100748.13;5077655;28;20108;-80
2022/09/03 10:21:49;;;;;;;15.27;3.58;;;;;;;26.22;43.81;100748.81;5077330;28;20025;-80
2022/09/03 10:24:32;;;;;;;16.95;4.28;;;;;;;26.20;44.71;100749.03;5078200;28;20086;-80
2022/09/03 10:27:11;;;;;;;7.47;1.70;;;;;;;26.36;43.96;100746.72;5073154;28;20032;-80
2022/09/03 10:29:40;;;;;;;20.40;7.28;;;;;;;26.31;43.48;100757.78;5077322;28;20166;-80
2022/09/03 10:32:18;;;;;;;23.38;9.05;;;;;;;26.01;42.88;100750.88;5062266;28;20029;-79
2022/09/03 10:34:55;;;;;;;36.58;11.70;;;;;;;25.84;44.36;100742.13;5071990;28;20075;-80
2022/09/03 10:37:42;;;;;;;19.05;7.60;;;;;;;26.48;42.19;100744.91;5059045;28;20052;-80
2022/09/03 10:40:19;;;;;;;20.43;9.23;;;;;;;26.29;42.94;100743.13;5059828;28;20346;-80
2022/09/03 10:43:17;;;;;;;24.58;9.20;;;;;;;26.82;42.75;100739.00;5060022;28;20025;-80
2022/09/03 10:45:46;;;;;;;15.75;4.30;;;;;;;27.22;41.85;100746.97;5079331;28;20444;-80
2022/09/03 10:48:26;;;;;;;11.13;3.42;;;;;;;26.65;41.60;100750.81;5062996;28;20103;-80
2022/09/03 10:50:54;;;;;;;16.27;6.93;;;;;;;27.18;42.28;100746.56;5074528;28;20094;-80
2022/09/03 10:53:32;;;;;;;17.17;7.53;;;;;;;26.83;42.52;100749.16;5060126;28;20123;-81
2022/09/03 10:56:11;;;;;;;23.80;9.38;;;;;;;27.11;41.98;100745.81;5068203;28;20024;-82
2022/09/03 10:59:12;;;;;;;20.15;6.65;;;;;;;27.22;41.26;100747.84;5055503;28;20035;-79
2022/09/03 11:02:05;;;;;;;17.02;4.82;;;;;;;26.41;42.51;100736.53;5057942;28;20093;-78
2022/09/03 11:04:57;;;;;;;28.80;8.45;;;;;;;26.59;42.63;100744.13;5064019;28;20472;-81
2022/09/03 11:07:44;;;;;;;14.93;6.43;;;;;;;27.06;41.04;100749.31;5062259;28;20029;-81
2022/09/03 11:10:31;;;;;;;17.70;7.45;;;;;;;26.71;42.09;100743.41;5076145;28;20025;-80
2022/09/03 11:12:56;;;;;;;20.33;6.30;;;;;;;26.83;42.74;100741.56;5068713;28;20032;-80
2022/09/03 11:15:38;;;;;;;11.38;3.58;;;;;;;27.01;42.89;100742.69;5064647;28;20021;-81
2022/09/03 11:18:10;;;;;;;8.23;2.80;;;;;;;27.18;42.09;100738.13;5049109;28;20494;-80
2022/09/03 11:20:37;;;;;;;4.63;1.58;;;;;;;27.05;42.31;100736.34;5067978;28;20059;-80
2022/09/03 11:23:07;;;;;;;8.77;3.25;;;;;;;27.06;42.45;100728.78;5045640;28;20094;-80
2022/09/03 11:25:41;;;;;;;7.82;1.75;;;;;;;26.80;42.01;100729.94;5078051;28;20048;-80
2022/09/03 11:28:18;;;;;;;7.72;1.70;;;;;;;26.80;42.19;100730.78;5079800;28;20100;-80
2022/09/03 11:31:14;;;;;;;7.95;2.20;;;;;;;27.41;42.36;100728.16;5075945;28;20036;-79
2022/09/03 11:33:44;;;;;;;20.38;6.10;;;;;;;27.12;41.39;100730.63;5045797;28;20050;-79
2022/09/03 11:36:29;;;;;;;13.45;5.55;;;;;;;26.79;42.08;100731.88;5026248;28;20120;-79
2022/09/03 11:38:55;;;;;;;18.60;4.88;;;;;;;26.45;42.57;100724.84;5038470;28;20053;-80
2022/09/03 11:41:36;;;;;;;5.20;2.13;;;;;;;27.02;42.06;100724.72;5035407;28;20512;-80
2022/09/03 11:44:18;;;;;;;11.63;2.33;;;;;;;27.08;41.49;100727.44;5019997;28;20025;-79
2022/09/03 11:46:56;;;;;;;5.35;2.30;;;;;;;27.01;41.66;100717.41;5033579;28;20083;-80
2022/09/03 11:49:32;;;;;;;13.70;3.70;;;;;;;27.17;41.51;100719.56;5028666;28;20029;-81
2022/09/03 11:52:01;;;;;;;13.13;2.80;;;;;;;26.54;42.99;100701.84;5036727;28;20033;-80
2022/09/03 11:54:31;;;;;;;12.35;3.03;;;;;;;26.66;42.97;100707.63;5037259;28;20082;-79